Time;durP1;ratioP1;P1;durP2;ratioP2;P2;SDS_P1;SDS_P2;PMS_P1;PMS_P2;Temp;Humidity;BMP_temperature;BMP_pressure;BME280_temperature;BME280_humidity;BME280_pressure;Samples;Min_cycle;Max_cycle;Signal;HPM_P1;HPM_P2
2021/05/25 07:30:54;;;;;;;22.20;3.33;;;12.80;99.90;;;;;;6084396;23;20140;-81
2021/05/25 07:33:23;;;;;;;14.70;3.08;;;12.80;99.90;;;;;;6153221;23;20033;-80
2021/05/25 07:35:51;;;;;;;15.95;3.13;;;12.80;99.90;;;;;;6153291;23;20075;-80
2021/05/25 07:38:17;;;;;;;14.38;2.50;;;12.80;99.90;;;;;;6152693;23;20038;-80
2021/05/25 07:40:45;;;;;;;15.43;2.85;;;12.90;99.90;;;;;;6153625;23;20018;-80
2021/05/25 07:43:12;;;;;;;23.05;3.20;;;12.90;99.90;;;;;;6154458;23;20022;-80
2021/05/25 07:45:39;;;;;;;19.33;3.25;;;12.90;99.90;;;;;;6153938;23;20460;-80
2021/05/25 07:48:06;;;;;;;18.05;3.47;;;12.90;99.90;;;;;;6152284;23;20026;-81
2021/05/25 07:50:34;;;;;;;13.00;2.55;;;12.70;99.90;;;;;;6153330;23;20018;-79
2021/05/25 07:53:02;;;;;;;18.10;3.20;;;12.80;99.90;;;;;;6154642;23;20550;-80
2021/05/25 07:55:30;;;;;;;17.92;3.63;;;13.00;99.90;;;;;;6140164;23;20076;-80
2021/05/25 07:57:59;;;;;;;14.07;2.70;;;13.10;99.90;;;;;;6154237;23;20519;-79
2021/05/25 08:00:27;;;;;;;12.75;2.50;;;13.30;99.90;;;;;;6152632;23;20025;-80
2021/05/25 08:02:54;;;;;;;12.93;2.85;;;13.20;99.90;;;;;;6153255;23;20018;-80
2021/05/25 08:05:22;;;;;;;17.27;2.60;;;13.30;99.90;;;;;;6154104;23;20024;-79
2021/05/25 08:07:49;;;;;;;12.80;2.60;;;13.40;99.90;;;;;;6153022;23;20096;-78
2021/05/25 08:10:17;;;;;;;22.95;3.45;;;13.50;99.90;;;;;;6152894;23;20080;-79
2021/05/25 08:12:44;;;;;;;20.17;3.35;;;13.60;99.90;;;;;;6154513;23;20033;-80
2021/05/25 08:15:16;;;;;;;19.55;3.38;;;13.60;99.90;;;;;;6152420;23;20021;-78
2021/05/25 08:20:32;;;;;;;19.27;3.72;;;13.70;99.90;;;;;;6153630;23;20064;-80
2021/05/25 08:23:19;;;;;;;20.67;3.40;;;13.70;99.90;;;;;;6152377;23;20408;-79
2021/05/25 08:25:47;;;;;;;19.48;3.35;;;13.90;99.90;;;;;;6152864;23;20021;-79
2021/05/25 08:28:14;;;;;;;17.85;3.17;;;14.00;99.90;;;;;;6153771;23;20025;-79
2021/05/25 08:30:42;;;;;;;18.90;4.00;;;14.10;99.90;;;;;;6152463;23;20040;-80
2021/05/25 08:33:12;;;;;;;22.35;3.78;;;14.10;99.90;;;;;;6152519;23;20018;-80
2021/05/25 08:35:42;;;;;;;18.10;3.55;;;14.20;99.90;;;;;;6152863;23;20033;-80
2021/05/25 08:38:11;;;;;;;20.05;3.95;;;14.40;99.90;;;;;;6152615;23;20076;-80
2021/05/25 08:40:38;;;;;;;;;;;14.30;99.90;;;;;;6154774;23;20013;-80
2021/05/25 08:43:06;;;;;;;19.70;3.83;;;14.10;99.90;;;;;;6153908;23;19920;-80
2021/05/25 08:45:33;;;;;;;21.65;4.05;;;13.90;99.90;;;;;;6153280;23;20018;-81
2021/05/25 08:48:02;;;;;;;22.33;4.20;;;13.90;99.90;;;;;;6152849;23;20084;-80
2021/05/25 08:50:49;;;;;;;19.13;4.22;;;13.70;99.90;;;;;;6153058;23;20013;-79
2021/05/25 08:53:16;;;;;;;17.45;3.90;;;13.70;99.90;;;;;;6152504;23;20404;-79
2021/05/25 08:55:47;;;;;;;21.13;3.45;;;13.90;99.90;;;;;;6154527;23;20021;-80
2021/05/25 08:58:14;;;;;;;16.92;3.40;;;14.00;99.90;;;;;;6154072;23;20080;-80
2021/05/25 09:00:41;;;;;;;17.33;3.65;;;14.00;99.90;;;;;;6152904;23;20025;-81
2021/05/25 09:03:08;;;;;;;15.73;3.22;;;13.90;99.90;;;;;;6152962;23;20476;-77
2021/05/25 09:05:37;;;;;;;14.98;2.75;;;14.00;99.90;;;;;;6156245;23;20739;-79
2021/05/25 09:08:04;;;;;;;15.70;3.47;;;13.90;99.90;;;;;;6155876;23;20021;-80
2021/05/25 09:10:39;;;;;;;17.77;4.45;;;14.00;99.90;;;;;;6154788;23;20021;-79
2021/05/25 09:13:17;;;;;;;19.80;3.28;;;14.00;99.90;;;;;;6154364;23;20026;-79
2021/05/25 09:15:50;;;;;;;12.43;3.30;;;14.10;99.90;;;;;;6154949;23;20057;-80
2021/05/25 09:18:21;;;;;;;11.93;3.53;;;14.30;99.90;;;;;;6155169;23;20068;-79
2021/05/25 09:20:56;;;;;;;16.13;3.45;;;14.40;99.90;;;;;;6156088;23;20022;-80
2021/05/25 09:23:43;;;;;;;19.17;3.67;;;14.50;99.90;;;;;;6155552;23;20013;-80
2021/05/25 09:26:14;;;;;;;13.38;3.08;;;14.60;99.90;;;;;;6154640;23;20017;-81
2021/05/25 09:28:57;;;;;;;20.75;3.80;;;14.60;99.90;;;;;;6156125;23;20539;-80
2021/05/25 09:31:44;;;;;;;16.50;3.58;;;14.70;99.90;;;;;;6155298;23;20389;-79
2021/05/25 09:34:22;;;;;;;18.58;3.67;;;14.70;99.90;;;;;;6154058;23;20021;-79
2021/05/25 09:37:06;;;;;;;19.27;4.18;;;14.70;99.90;;;;;;6156609;23;20017;-79
2021/05/25 09:39:35;;;;;;;14.15;3.40;;;14.50;99.90;;;;;;6154257;23;20452;-80
2021/05/25 09:42:07;;;;;;;17.30;4.10;;;14.50;99.90;;;;;;6155971;23;20021;-80
2021/05/25 09:44:36;;;;;;;18.90;4.25;;;14.50;99.90;;;;;;6152973;23;20029;-80
2021/05/25 09:47:05;;;;;;;14.90;3.83;;;14.60;99.90;;;;;;6154489;23;20133;-80
2021/05/25 09:49:32;;;;;;;13.73;3.75;;;14.60;99.90;;;;;;6154056;23;20013;-80
2021/05/25 09:52:11;;;;;;;13.00;4.30;;;14.50;99.90;;;;;;6153954;23;20027;-79
2021/05/25 09:54:41;;;;;;;16.23;4.53;;;14.60;99.90;;;;;;6154011;23;20068;-80
2021/05/25 09:57:08;;;;;;;18.52;4.35;;;14.70;99.90;;;;;;6153723;23;20017;-80
2021/05/25 09:59:39;;;;;;;19.48;4.55;;;14.60;99.90;;;;;;6154141;23;20047;-82
2021/05/25 10:02:17;;;;;;;17.45;4.20;;;14.70;99.90;;;;;;6153788;23;20018;-80
2021/05/25 10:05:02;;;;;;;19.10;4.30;;;14.90;99.90;;;;;;6153800;23;20022;-81
2021/05/25 10:07:29;;;;;;;14.45;3.75;;;14.90;99.90;;;;;;6153912;23;20017;-80
2021/05/25 10:09:58;;;;;;;14.50;4.18;;;14.80;99.90;;;;;;6154259;23;20014;-81
2021/05/25 10:12:28;;;;;;;18.50;3.80;;;14.80;99.90;;;;;;6153717;23;20070;-82
2021/05/25 10:14:56;;;;;;;15.45;4.15;;;14.90;99.90;;;;;;6153704;23;20457;-81
2021/05/25 10:20:08;;;;;;;20.63;5.00;;;14.90;99.90;;;;;;6155347;23;20032;-82
2021/05/25 10:22:38;;;;;;;16.80;4.53;;;14.80;99.90;;;;;;6155612;23;20021;-80
2021/05/25 10:25:07;;;;;;;19.02;4.57;;;14.80;99.90;;;;;;6154073;23;20017;-80
2021/05/25 10:27:34;;;;;;;16.65;4.85;;;14.90;99.90;;;;;;6154014;23;20014;-80
2021/05/25 10:30:26;;;;;;;20.38;4.05;;;15.00;99.90;;;;;;6153611;23;20017;-80
2021/05/25 10:33:05;;;;;;;14.45;4.45;;;14.70;99.90;;;;;;6163428;23;20021;-80
2021/05/25 10:35:51;;;;;;;16.70;4.18;;;14.60;99.90;;;;;;6153321;23;20013;-80
2021/05/25 10:38:22;;;;;;;14.82;4.22;;;14.60;99.90;;;;;;6153152;23;20084;-80
2021/05/25 10:40:55;;;;;;;16.65;4.40;;;14.70;99.90;;;;;;6153871;23;20041;-80
2021/05/25 10:43:44;;;;;;;15.68;4.45;;;14.70;99.90;;;;;;6152537;23;20045;-80
2021/05/25 10:46:11;;;;;;;14.10;3.60;;;14.80;99.90;;;;;;6153468;23;20021;-80
2021/05/25 10:49:06;;;;;;;13.63;4.40;;;14.80;99.90;;;;;;6153910;23;20025;-80
2021/05/25 10:51:45;;;;;;;16.95;4.35;;;15.00;99.90;;;;;;6122802;23;20018;-80
2021/05/25 10:54:30;;;;;;;12.98;3.90;;;15.10;99.90;;;;;;6122752;23;20022;-80
2021/05/25 10:57:02;;;;;;;13.52;4.50;;;15.30;99.90;;;;;;6123575;23;20070;-80
2021/05/25 11:00:07;;;;;;;18.27;4.63;;;15.30;99.90;;;;;;6152355;23;20018;-81
2021/05/25 11:02:53;;;;;;;18.15;5.10;;;15.20;99.90;;;;;;6152050;23;20014;-79
2021/05/25 11:05:35;;;;;;;22.95;5.75;;;15.30;99.90;;;;;;6150219;23;20029;-80
2021/05/25 11:08:08;;;;;;;13.13;4.50;;;15.30;99.90;;;;;;6151138;23;20120;-81
2021/05/25 11:10:47;;;;;;;24.17;5.80;;;15.30;99.90;;;;;;6150715;23;20014;-80
2021/05/25 11:16:09;;;;;;;14.18;4.95;;;15.00;99.90;;;;;;6152661;23;20016;-80
2021/05/25 11:18:48;;;;;;;17.35;5.28;;;15.10;99.90;;;;;;6152609;23;20096;-80
2021/05/25 11:24:26;;;;;;;;;;;14.90;99.90;;;;;;6152479;23;20037;-80
2021/05/25 11:26:57;;;;;;;15.55;6.35;;;14.90;99.90;;;;;;6152293;23;20307;-80
2021/05/25 11:29:25;;;;;;;22.50;8.07;;;14.80;99.90;;;;;;6151513;23;20030;-80
2021/05/25 11:31:54;;;;;;;23.07;7.50;;;14.70;99.90;;;;;;6152251;23;20464;-80
2021/05/25 11:34:22;;;;;;;25.10;7.80;;;14.60;99.90;;;;;;6150521;23;20088;-81
2021/05/25 11:36:53;;;;;;;;;;;14.50;99.90;;;;;;6153082;23;20048;-80
2021/05/25 11:39:20;;;;;;;17.55;7.05;;;14.50;99.90;;;;;;6175020;23;19928;-81
2021/05/25 11:41:47;;;;;;;17.58;7.13;;;14.60;99.90;;;;;;6152115;23;20473;-81
2021/05/25 11:44:16;;;;;;;19.85;6.95;;;14.80;99.90;;;;;;6150148;23;20018;-81
2021/05/25 11:46:51;;;;;;;17.48;7.03;;;14.90;99.90;;;;;;6152279;23;20025;-81
2021/05/25 11:49:19;;;;;;;17.40;5.80;;;15.00;99.90;;;;;;6150251;23;20018;-81
2021/05/25 11:51:47;;;;;;;15.45;5.82;;;15.00;99.90;;;;;;6152492;23;20029;-80
2021/05/25 11:54:16;;;;;;;13.18;5.45;;;15.00;99.90;;;;;;6151702;23;20017;-81
2021/05/25 11:56:49;;;;;;;19.35;5.90;;;15.10;99.90;;;;;;6150719;23;20018;-80
2021/05/25 11:59:21;;;;;;;15.68;5.72;;;15.20;99.90;;;;;;6150186;23;20018;-81
2021/05/25 12:01:53;;;;;;;15.57;5.75;;;15.30;99.90;;;;;;6151574;23;20014;-80
2021/05/25 12:04:21;;;;;;;14.13;5.85;;;15.30;99.90;;;;;;6152636;23;20017;-81
2021/05/25 12:06:59;;;;;;;14.55;5.18;;;15.20;99.90;;;;;;6154807;23;20018;-81
2021/05/25 12:09:28;;;;;;;19.85;7.07;;;15.20;99.90;;;;;;6152581;23;20460;-80
2021/05/25 12:12:07;;;;;;;19.27;7.00;;;15.10;99.90;;;;;;6153177;23;20138;-80
2021/05/25 12:14:34;;;;;;;17.33;7.93;;;15.10;99.90;;;;;;6152760;23;20017;-80
2021/05/25 12:17:05;;;;;;;15.98;6.47;;;15.00;99.90;;;;;;6153026;23;20469;-80
2021/05/25 12:19:32;;;;;;;19.58;7.25;;;15.00;99.90;;;;;;6152983;23;20016;-80
2021/05/25 12:22:00;;;;;;;23.38;8.32;;;14.90;99.90;;;;;;6154617;23;20021;-81
2021/05/25 12:24:29;;;;;;;16.85;7.32;;;14.90;99.90;;;;;;6152495;23;20017;-80
2021/05/25 12:26:57;;;;;;;19.60;7.25;;;14.90;99.90;;;;;;6152998;23;20524;-81
2021/05/25 12:29:26;;;;;;;25.88;7.10;;;15.10;99.90;;;;;;6152146;23;20025;-81
2021/05/25 12:31:54;;;;;;;16.33;7.38;;;15.20;99.90;;;;;;6152536;23;20044;-80
2021/05/25 12:34:22;;;;;;;22.83;7.40;;;15.30;99.90;;;;;;6152285;23;20380;-81
2021/05/25 12:37:00;;;;;;;18.20;7.87;;;15.30;99.90;;;;;;6152790;23;20021;-80
2021/05/25 12:39:38;;;;;;;19.58;7.70;;;15.40;99.90;;;;;;6152425;23;20441;-80
2021/05/25 12:42:18;;;;;;;18.52;6.78;;;15.50;99.90;;;;;;6150874;23;20018;-81
2021/05/25 12:44:48;;;;;;;14.05;6.63;;;15.70;99.90;;;;;;6154274;23;20021;-80
2021/05/25 12:47:16;;;;;;;19.95;7.70;;;15.80;99.90;;;;;;6152214;23;20073;-81
2021/05/25 12:49:48;;;;;;;18.15;7.18;;;15.90;99.90;;;;;;6154284;23;20064;-80
2021/05/25 12:52:18;;;;;;;18.38;7.78;;;15.90;99.90;;;;;;6151992;23;20032;-80
2021/05/25 12:55:03;;;;;;;18.33;7.38;;;15.90;99.90;;;;;;6152896;23;20021;-81
2021/05/25 12:57:42;;;;;;;25.15;7.53;;;16.00;99.90;;;;;;6152272;23;20060;-81
2021/05/25 13:00:11;;;;;;;19.08;7.00;;;16.00;99.90;;;;;;6151947;23;20084;-81
2021/05/25 13:02:51;;;;;;;21.60;7.20;;;16.00;99.90;;;;;;6152671;23;20022;-79
2021/05/25 13:05:37;;;;;;;22.58;7.35;;;16.00;99.90;;;;;;6153476;23;20018;-81
2021/05/25 13:08:08;;;;;;;15.65;6.85;;;15.90;99.90;;;;;;6151856;23;20021;-81
2021/05/25 13:10:47;;;;;;;18.15;7.00;;;15.90;99.90;;;;;;6154208;23;20384;-81
2021/05/25 13:13:16;;;;;;;24.25;7.63;;;15.90;99.90;;;;;;6151911;23;20028;-81
2021/05/25 13:15:56;;;;;;;21.10;8.25;;;15.90;99.90;;;;;;6153862;23;20022;-82
2021/05/25 13:18:41;;;;;;;24.27;8.07;;;15.80;99.90;;;;;;6153308;23;20038;-80
2021/05/25 13:21:10;;;;;;;18.80;7.65;;;15.80;99.90;;;;;;6152019;23;20017;-82
2021/05/25 13:23:37;;;;;;;;;;;15.90;99.90;;;;;;6154638;23;20026;-81
2021/05/25 13:26:18;;;;;;;19.27;7.57;;;15.90;99.90;;;;;;6176583;23;19916;-82
2021/05/25 13:28:54;;;;;;;18.50;6.95;;;15.90;99.90;;;;;;6152465;23;20508;-80
2021/05/25 13:31:23;;;;;;;17.13;6.22;;;16.00;99.90;;;;;;6151495;23;20080;-81
2021/05/25 13:33:51;;;;;;;17.25;6.35;;;16.00;99.90;;;;;;6152548;23;20056;-80
2021/05/25 13:36:21;;;;;;;16.90;7.30;;;16.00;99.90;;;;;;6152043;23;20021;-81
2021/05/25 13:38:48;;;;;;;19.80;7.10;;;16.00;99.90;;;;;;6152505;23;20018;-81
2021/05/25 13:41:17;;;;;;;23.05;6.93;;;16.00;99.90;;;;;;6151430;23;20484;-82
2021/05/25 13:43:50;;;;;;;18.30;7.13;;;16.00;99.90;;;;;;6153936;23;20096;-80
2021/05/25 13:46:17;;;;;;;15.52;6.97;;;16.00;99.90;;;;;;6153567;23;20017;-80
2021/05/25 13:48:44;;;;;;;16.25;6.82;;;16.00;99.90;;;;;;6153213;23;20025;-80
2021/05/25 13:51:12;;;;;;;19.13;6.07;;;16.00;99.90;;;;;;6155271;23;20026;-81
2021/05/25 13:53:38;;;;;;;13.63;5.38;;;16.00;99.90;;;;;;6155668;23;20017;-79
2021/05/25 13:56:32;;;;;;;15.80;5.72;;;16.00;99.90;;;;;;6153782;23;20084;-81
2021/05/25 13:58:56;;;;;;;20.13;5.82;;;16.00;99.90;;;;;;6155249;23;20017;-80
2021/05/25 14:03:50;;;;;;;15.63;6.35;;;16.00;99.90;;;;;;6155576;23;20028;-81
2021/05/25 14:06:17;;;;;;;14.52;5.50;;;15.90;99.90;;;;;;6153090;23;20080;-81
2021/05/25 14:08:45;;;;;;;21.35;5.78;;;16.00;99.90;;;;;;6155629;23;20085;-80
2021/05/25 14:11:13;;;;;;;16.70;6.07;;;15.90;99.90;;;;;;6153364;23;20017;-80
2021/05/25 14:13:40;;;;;;;16.42;6.05;;;15.90;99.90;;;;;;6153979;23;20014;-80
2021/05/25 14:16:08;;;;;;;19.67;6.43;;;16.00;99.90;;;;;;6153678;23;20065;-81
2021/05/25 14:18:35;;;;;;;17.77;5.85;;;16.10;99.90;;;;;;6154049;23;20052;-82
2021/05/25 14:21:03;;;;;;;17.35;5.97;;;16.10;99.90;;;;;;6153876;23;20032;-81
2021/05/25 14:23:31;;;;;;;18.42;6.68;;;16.10;99.90;;;;;;6153663;23;20013;-81
2021/05/25 14:25:59;;;;;;;22.50;6.87;;;16.00;99.90;;;;;;6154817;23;20021;-81
2021/05/25 14:28:26;;;;;;;23.08;6.20;;;15.80;99.90;;;;;;6154840;23;20241;-81
2021/05/25 14:30:53;;;;;;;17.50;6.00;;;15.80;99.90;;;;;;6154913;23;20017;-80
2021/05/25 14:33:21;;;;;;;20.58;6.50;;;15.60;99.90;;;;;;6154573;23;20069;-80
2021/05/25 14:35:48;;;;;;;16.33;6.70;;;15.30;99.90;;;;;;6153695;23;20467;-80
2021/05/25 14:38:16;;;;;;;26.45;7.20;;;15.10;99.90;;;;;;6153262;23;20025;-81
2021/05/25 14:40:44;;;;;;;22.00;7.45;;;14.90;99.90;;;;;;6154016;23;20048;-81
2021/05/25 14:43:11;;;;;;;19.40;6.97;;;14.80;99.90;;;;;;6153405;23;20084;-81
2021/05/25 14:45:40;;;;;;;21.25;8.23;;;14.80;99.90;;;;;;6155096;23;20073;-79
2021/05/25 14:48:09;;;;;;;21.50;7.38;;;14.70;99.90;;;;;;6154550;23;20072;-81
2021/05/25 14:50:36;;;;;;;19.45;6.90;;;14.50;99.90;;;;;;6153579;23;20076;-80
2021/05/25 14:53:18;;;;;;;22.65;7.30;;;14.50;99.90;;;;;;6153558;23;20023;-80
2021/05/25 14:55:49;;;;;;;19.08;7.50;;;14.50;99.90;;;;;;6154680;23;20091;-81
2021/05/25 14:58:18;;;;;;;21.08;7.28;;;14.40;99.90;;;;;;6153018;23;20084;-81
2021/05/25 15:00:59;;;;;;;19.35;6.97;;;14.30;99.90;;;;;;6154741;23;20017;-79
2021/05/25 15:06:08;;;;;;;18.58;7.80;;;14.20;99.90;;;;;;6155074;23;20068;-81
2021/05/25 15:08:52;;;;;;;23.77;7.97;;;14.20;99.90;;;;;;6153057;23;20061;-82
2021/05/25 15:11:19;;;;;;;22.27;7.85;;;14.30;99.90;;;;;;6153016;23;20017;-81
2021/05/25 15:13:46;;;;;;;17.73;6.88;;;14.40;99.90;;;;;;6153443;23;20076;-79
2021/05/25 15:16:15;;;;;;;17.30;7.20;;;14.40;99.90;;;;;;6152921;23;20017;-80
2021/05/25 15:18:43;;;;;;;24.92;8.02;;;14.50;99.90;;;;;;6150887;23;20346;-80
2021/05/25 15:21:11;;;;;;;22.80;7.47;;;14.60;99.90;;;;;;6151829;23;20018;-80
2021/05/25 15:23:38;;;;;;;26.42;8.00;;;14.60;99.90;;;;;;6150204;23;20048;-81
2021/05/25 15:26:06;;;;;;;27.77;7.85;;;14.70;99.90;;;;;;6151095;23;20029;-81
2021/05/25 15:28:33;;;;;;;21.88;8.00;;;14.80;99.90;;;;;;6150600;23;20020;-80
2021/05/25 15:31:02;;;;;;;29.50;8.55;;;14.80;99.90;;;;;;6150592;23;20104;-82
2021/05/25 15:33:30;;;;;;;22.23;8.10;;;14.80;99.90;;;;;;6152206;23;20020;-80
2021/05/25 15:35:58;;;;;;;22.33;7.80;;;14.60;99.90;;;;;;6152392;23;20025;-81
2021/05/25 15:38:26;;;;;;;25.70;8.88;;;14.50;99.90;;;;;;6150147;23;20444;-79
2021/05/25 15:40:54;;;;;;;28.50;8.98;;;14.50;99.90;;;;;;6150930;23;20021;-81
2021/05/25 15:43:21;;;;;;;23.48;8.23;;;14.40;99.90;;;;;;6150311;23;20076;-81
2021/05/25 15:45:50;;;;;;;24.27;9.02;;;14.30;99.90;;;;;;6152866;23;20021;-82
2021/05/25 15:48:17;;;;;;;24.88;8.98;;;14.30;99.90;;;;;;6148284;23;20026;-80
2021/05/25 15:50:45;;;;;;;29.30;9.90;;;14.20;99.90;;;;;;6150750;23;20017;-81
2021/05/25 15:53:15;;;;;;;29.92;10.60;;;14.20;99.90;;;;;;6148435;23;20021;-80
2021/05/25 15:55:43;;;;;;;21.05;9.52;;;14.10;99.90;;;;;;6150350;23;20080;-81
2021/05/25 15:58:10;;;;;;;28.50;10.18;;;14.10;99.90;;;;;;6150179;23;20021;-82
2021/05/25 16:00:39;;;;;;;27.30;9.50;;;14.10;99.90;;;;;;6150903;23;20390;-82
2021/05/25 16:03:08;;;;;;;26.63;10.32;;;14.10;99.90;;;;;;6148464;23;20017;-81
2021/05/25 16:05:35;;;;;;;32.42;10.70;;;14.20;99.90;;;;;;6149922;23;20018;-81
2021/05/25 16:08:03;;;;;;;26.63;11.02;;;14.20;99.90;;;;;;6150311;23;20397;-81
2021/05/25 16:10:31;;;;;;;26.42;11.68;;;14.20;99.90;;;;;;6150039;23;20453;-82
2021/05/25 16:12:58;;;;;;;20.90;10.07;;;14.20;99.90;;;;;;6150093;23;20071;-81
2021/05/25 16:15:25;;;;;;;26.17;11.27;;;14.10;99.90;;;;;;6151648;23;20080;-81
2021/05/25 16:17:52;;;;;;;28.83;12.23;;;14.00;99.90;;;;;;6150057;23;20021;-80
2021/05/25 16:20:22;;;;;;;23.48;11.32;;;14.00;99.90;;;;;;6150186;23;20087;-82
2021/05/25 16:22:50;;;;;;;26.70;11.40;;;13.90;99.90;;;;;;6150445;23;20017;-82
2021/05/25 16:25:20;;;;;;;33.28;11.98;;;13.80;99.90;;;;;;6149732;23;20021;-81
2021/05/25 16:27:47;;;;;;;29.50;11.30;;;13.70;99.90;;;;;;6151922;23;20024;-80
2021/05/25 16:30:16;;;;;;;27.83;11.57;;;13.70;99.90;;;;;;6151314;23;20025;-80
2021/05/25 16:32:43;;;;;;;25.65;11.43;;;13.70;99.90;;;;;;6151673;23;20032;-80
2021/05/25 16:35:11;;;;;;;25.08;12.05;;;13.60;99.90;;;;;;6149906;23;20487;-79
2021/05/25 16:37:39;;;;;;;27.75;11.80;;;13.60;99.90;;;;;;6151937;23;20021;-81
2021/05/25 16:40:07;;;;;;;32.92;12.35;;;13.50;99.90;;;;;;6149696;23;20021;-82
2021/05/25 16:42:34;;;;;;;30.97;12.57;;;13.50;99.90;;;;;;6152431;23;20393;-80
2021/05/25 16:45:04;;;;;;;33.03;12.27;;;13.50;99.90;;;;;;6150284;23;20257;-81
2021/05/25 16:47:30;;;;;;;39.92;12.18;;;13.50;99.90;;;;;;6150011;23;20020;-82
2021/05/25 16:50:04;;;;;;;34.03;11.13;;;13.50;99.90;;;;;;6150354;23;20022;-81
2021/05/25 16:52:36;;;;;;;33.45;12.18;;;13.50;99.90;;;;;;6149719;23;20021;-80
2021/05/25 16:55:26;;;;;;;30.10;10.80;;;13.40;99.90;;;;;;6151298;23;20022;-80
2021/05/25 16:57:53;;;;;;;24.27;10.55;;;13.40;99.90;;;;;;6151782;23;20400;-80
2021/05/25 17:00:46;;;;;;;24.80;9.75;;;13.30;99.90;;;;;;6149645;23;20021;-81
2021/05/25 17:19:22;;;;;;;33.67;8.32;;;13.10;99.90;;;;;;6090021;23;20034;-80
2021/05/25 17:21:49;;;;;;;31.20;8.20;;;13.10;99.90;;;;;;6091250;23;20018;-79
2021/05/25 17:24:20;;;;;;;29.52;8.20;;;13.00;99.90;;;;;;6091626;23;20081;-78
2021/05/25 17:26:48;;;;;;;27.92;8.65;;;13.00;99.90;;;;;;6092106;23;20097;-80
2021/05/25 17:29:18;;;;;;;35.08;8.13;;;13.00;99.90;;;;;;6088237;23;20030;-79
2021/05/25 17:31:48;;;;;;;23.13;6.38;;;13.00;99.90;;;;;;6088593;23;20034;-80
2021/05/25 17:34:15;;;;;;;22.60;7.22;;;13.00;99.90;;;;;;6065874;23;20627;-79
2021/05/25 17:36:45;;;;;;;26.23;6.93;;;13.00;99.90;;;;;;6088949;23;20022;-79
2021/05/25 17:39:13;;;;;;;25.58;7.15;;;13.10;99.90;;;;;;6088388;23;20014;-79
2021/05/25 17:41:41;;;;;;;20.52;5.55;;;13.10;99.90;;;;;;6084577;23;20026;-80
2021/05/25 17:44:08;;;;;;;28.60;5.28;;;13.10;99.90;;;;;;6084779;23;20399;-77
2021/05/25 17:46:36;;;;;;;20.75;5.82;;;13.10;99.90;;;;;;6085378;23;20022;-80
2021/05/25 17:49:05;;;;;;;21.38;5.60;;;13.10;99.90;;;;;;6085334;23;20037;-80
2021/05/25 17:51:33;;;;;;;30.23;5.18;;;13.10;99.90;;;;;;6084722;23;20022;-80
2021/05/25 17:54:00;;;;;;;28.75;6.20;;;13.10;99.90;;;;;;6089848;23;20026;-80
2021/05/25 17:56:27;;;;;;;25.77;5.30;;;13.10;99.90;;;;;;6147340;23;20033;-80
2021/05/25 17:58:54;;;;;;;23.00;4.15;;;13.10;99.90;;;;;;6147825;23;20021;-79
2021/05/25 18:01:21;;;;;;;27.02;4.50;;;13.10;99.90;;;;;;6146581;23;20410;-80
2021/05/25 18:03:48;;;;;;;26.35;4.40;;;13.00;99.90;;;;;;6147349;23;20022;-79
2021/05/25 18:06:18;;;;;;;23.15;4.10;;;13.00;99.90;;;;;;6147573;23;20104;-81
2021/05/25 18:08:45;;;;;;;20.73;4.15;;;13.00;99.90;;;;;;6151632;23;20017;-79
2021/05/25 18:11:17;;;;;;;25.15;4.22;;;13.00;99.90;;;;;;6150691;23;20025;-80
2021/05/25 18:13:48;;;;;;;28.23;4.47;;;12.90;99.90;;;;;;6152402;23;20092;-79
2021/05/25 18:16:16;;;;;;;21.63;4.32;;;12.90;99.90;;;;;;6150964;23;20124;-79
2021/05/25 18:18:43;;;;;;;31.70;5.30;;;12.90;99.90;;;;;;6152806;23;20021;-80
2021/05/25 18:21:10;;;;;;;25.58;4.93;;;12.90;99.90;;;;;;6152116;23;20381;-81
2021/05/25 18:23:37;;;;;;;30.95;5.55;;;12.90;99.90;;;;;;6152301;23;20021;-79
2021/05/25 18:26:03;;;;;;;28.30;4.68;;;12.80;99.90;;;;;;6152673;23;20485;-81
2021/05/25 18:28:31;;;;;;;27.33;4.63;;;12.80;99.90;;;;;;6151348;23;20080;-79
2021/05/25 18:33:38;;;;;;;32.38;5.00;;;12.80;99.90;;;;;;6152970;23;20013;-79
2021/05/25 18:44:05;;;;;;;25.40;5.45;;;12.70;99.90;;;;;;6152409;23;20178;-79
2021/05/25 18:46:32;;;;;;;35.70;7.22;;;12.60;99.90;;;;;;6153091;23;20465;-79
2021/05/25 18:48:59;;;;;;;30.30;7.60;;;12.60;99.90;;;;;;6151199;23;20025;-80
2021/05/25 18:51:26;;;;;;;31.77;6.75;;;12.60;99.90;;;;;;6152471;23;20025;-79
2021/05/25 18:53:53;;;;;;;42.35;12.95;;;12.60;99.90;;;;;;6149752;23;20025;-80
2021/05/25 18:56:20;;;;;;;30.20;6.68;;;12.60;99.90;;;;;;6149497;23;20048;-79
2021/05/25 18:58:59;;;;;;;35.80;8.25;;;12.60;99.90;;;;;;6149801;23;20328;-79
2021/05/25 19:01:26;;;;;;;46.05;8.65;;;12.60;99.90;;;;;;6151099;23;20069;-80
2021/05/25 19:03:53;;;;;;;35.92;7.90;;;12.50;99.90;;;;;;6149488;23;20571;-79
2021/05/25 19:06:20;;;;;;;31.38;7.40;;;12.50;99.90;;;;;;6150933;23;20021;-79
2021/05/25 19:08:48;;;;;;;41.42;11.93;;;12.50;99.90;;;;;;6145359;23;20358;-78
2021/05/25 19:11:15;;;;;;;32.20;9.70;;;12.50;99.90;;;;;;6145570;23;20025;-79
2021/05/25 19:13:42;;;;;;;35.58;10.32;;;12.50;99.90;;;;;;6146804;23;20241;-79
2021/05/25 19:16:09;;;;;;;30.98;7.38;;;12.40;99.90;;;;;;6145205;23;20758;-79
2021/05/25 19:18:38;;;;;;;26.85;7.28;;;12.50;99.90;;;;;;6145426;23;20022;-82
2021/05/25 19:21:15;;;;;;;42.75;10.70;;;12.50;99.90;;;;;;6146942;23;20474;-79
2021/05/25 19:23:54;;;;;;;44.33;8.75;;;12.50;99.90;;;;;;6146570;23;20495;-79
2021/05/25 19:26:29;;;;;;;45.83;11.52;;;12.40;99.90;;;;;;6147080;23;20026;-79
2021/05/25 19:29:05;;;;;;;17.80;5.20;;;12.40;99.90;;;;;;6147461;23;20026;-79
2021/05/25 19:31:33;;;;;;;35.65;7.03;;;12.50;99.90;;;;;;6140070;23;20017;-78
2021/05/25 19:34:00;;;;;;;26.65;7.25;;;12.50;99.90;;;;;;6144482;23;20017;-80
2021/05/25 19:36:27;;;;;;;29.05;5.70;;;12.40;99.90;;;;;;6144707;23;20017;-80
2021/05/25 19:38:56;;;;;;;32.08;5.97;;;12.40;99.90;;;;;;6144663;23;20487;-80
2021/05/25 19:41:23;;;;;;;29.73;5.68;;;12.40;99.90;;;;;;6145595;23;20029;-79
2021/05/25 19:43:50;;;;;;;27.75;5.15;;;12.40;99.90;;;;;;6144620;23;20383;-80
2021/05/25 19:46:18;;;;;;;27.10;4.93;;;12.40;99.90;;;;;;6143709;23;20057;-79
2021/05/25 19:48:46;;;;;;;34.17;5.80;;;12.40;99.90;;;;;;6146418;23;20022;-80
2021/05/25 19:51:13;;;;;;;29.02;5.93;;;12.40;99.90;;;;;;6143776;23;20091;-80
2021/05/25 19:53:40;;;;;;;27.48;4.60;;;12.40;99.90;;;;;;6145608;23;20021;-80
2021/05/25 19:56:07;;;;;;;23.63;5.00;;;12.40;99.90;;;;;;6146127;23;20527;-80
2021/05/25 19:58:34;;;;;;;27.30;5.07;;;12.40;99.90;;;;;;6144398;23;20021;-79
2021/05/25 20:01:04;;;;;;;33.55;5.20;;;12.40;99.90;;;;;;6145662;23;20017;-80
2021/05/25 20:03:34;;;;;;;28.33;5.55;;;12.40;99.90;;;;;;6146075;23;20350;-80
2021/05/25 20:06:03;;;;;;;30.70;4.97;;;12.40;99.90;;;;;;6146683;23;20088;-79
2021/05/25 20:08:31;;;;;;;31.27;5.80;;;12.40;99.90;;;;;;6132385;23;20014;-80
2021/05/25 20:10:59;;;;;;;;;;;12.40;99.90;;;;;;6146576;23;20025;-80
2021/05/25 20:13:26;;;;;;;26.00;4.72;;;12.40;99.90;;;;;;6144813;23;19948;-81
2021/05/25 20:15:56;;;;;;;33.50;5.63;;;12.30;99.90;;;;;;6144500;23;20013;-80
2021/05/25 20:18:23;;;;;;;31.35;5.55;;;12.30;99.90;;;;;;6144892;23;20088;-78
2021/05/25 20:20:51;;;;;;;26.85;4.65;;;12.30;99.90;;;;;;6145886;23;20044;-80
2021/05/25 20:23:19;;;;;;;24.13;4.70;;;12.30;99.90;;;;;;6145685;23;20327;-79
2021/05/25 20:25:47;;;;;;;20.83;3.88;;;12.30;99.90;;;;;;6149135;23;20068;-79
2021/05/25 20:28:14;;;;;;;32.22;5.78;;;12.30;99.90;;;;;;6148193;23;20076;-80
2021/05/25 20:30:41;;;;;;;22.42;4.00;;;12.30;99.90;;;;;;6149067;23;20018;-81
2021/05/25 20:33:17;;;;;;;25.30;4.35;;;12.30;99.90;;;;;;6147078;23;20017;-79
2021/05/25 20:38:30;;;;;;;22.20;5.13;;;12.30;99.90;;;;;;6147292;23;20084;-80
2021/05/25 20:40:57;;;;;;;21.02;4.00;;;12.30;99.90;;;;;;6145160;23;20041;-78
2021/05/25 20:43:24;;;;;;;24.45;4.78;;;12.30;99.90;;;;;;6146878;23;20022;-81
2021/05/25 20:45:51;;;;;;;21.20;4.63;;;12.30;99.90;;;;;;6148057;23;20461;-82
2021/05/25 20:48:19;;;;;;;20.30;5.03;;;12.30;99.90;;;;;;6147382;23;20060;-80
2021/05/25 20:50:45;;;;;;;26.02;5.32;;;12.30;99.90;;;;;;6146168;23;20024;-80
2021/05/25 20:53:12;;;;;;;27.27;4.68;;;12.30;99.90;;;;;;6145663;23;20025;-81
2021/05/25 20:55:39;;;;;;;18.80;4.68;;;12.40;99.90;;;;;;6150124;23;20029;-79
2021/05/25 20:58:06;;;;;;;28.30;5.53;;;12.40;99.90;;;;;;6148318;23;20402;-80
2021/05/25 21:00:33;;;;;;;24.58;5.15;;;12.40;99.90;;;;;;6149532;23;20073;-80
2021/05/25 21:03:00;;;;;;;22.52;5.40;;;12.40;99.90;;;;;;6151005;23;20417;-80
2021/05/25 21:05:28;;;;;;;23.20;4.28;;;12.30;99.90;;;;;;6151038;23;20018;-79
2021/05/25 21:07:57;;;;;;;29.42;5.63;;;12.40;99.90;;;;;;6153011;23;20314;-80
2021/05/25 21:10:24;;;;;;;26.25;5.10;;;12.30;99.90;;;;;;6149515;23;20662;-80